createdAt,value
2023-01-21T00:03:43.355Z,1016.97
2023-01-21T00:08:45.488Z,1016.99
2023-01-21T00:13:44.641Z,1016.99
2023-01-21T00:18:46.737Z,1016.98
2023-01-21T00:23:46.872Z,1016.97
2023-01-21T00:28:46.020Z,1016.94
2023-01-21T00:33:47.138Z,1016.88
2023-01-21T00:38:49.297Z,1016.89
2023-01-21T00:43:49.439Z,1016.91
2023-01-21T00:48:48.621Z,1016.85
2023-01-21T00:53:49.717Z,1016.90
2023-01-21T00:58:51.838Z,1016.89
2023-01-21T01:03:51.033Z,1016.88
2023-01-21T01:08:51.190Z,1016.93
2023-01-21T01:13:52.320Z,1016.98
2023-01-21T01:18:53.461Z,1016.90
2023-01-21T01:23:54.669Z,1016.97
2023-01-21T01:28:55.837Z,1016.94
2023-01-21T01:33:57.055Z,1016.95
2023-01-21T01:38:58.248Z,1016.93
2023-01-21T01:43:59.356Z,1016.93
2023-01-21T01:49:00.561Z,1016.97
2023-01-21T01:54:01.757Z,1016.97
2023-01-21T01:59:02.993Z,1016.98
2023-01-21T02:04:04.244Z,1016.94
2023-01-21T02:09:05.483Z,1016.96
2023-01-21T02:14:06.699Z,1016.95
2023-01-21T02:19:08.145Z,1017.04
2023-01-21T02:24:09.372Z,1017.01
2023-01-21T02:29:10.593Z,1017.00
2023-01-21T02:34:11.813Z,1017.02
2023-01-21T02:39:13.000Z,1017.00
2023-01-21T02:44:14.180Z,1017.03
2023-01-21T02:49:15.391Z,1016.98
2023-01-21T02:54:16.690Z,1017.00
2023-01-21T02:59:17.859Z,1016.99
2023-01-21T03:04:18.076Z,1016.97
2023-01-21T03:09:19.301Z,1016.94
2023-01-21T03:14:20.552Z,1017.00
2023-01-21T03:19:21.858Z,1016.96
2023-01-21T03:24:23.073Z,1017.03
2023-01-21T03:29:24.325Z,1016.99
2023-01-21T03:34:25.579Z,1016.92
2023-01-21T03:39:26.790Z,1016.86
2023-01-21T03:44:28.016Z,1016.85
2023-01-21T03:49:29.225Z,1016.80
2023-01-21T03:54:30.467Z,1016.77
2023-01-21T03:59:31.679Z,1016.83
2023-01-21T04:04:32.911Z,1016.87
2023-01-21T04:09:34.100Z,1016.81
2023-01-21T04:14:35.330Z,1016.90
2023-01-21T04:19:36.557Z,1016.89
2023-01-21T04:24:37.724Z,1016.95
2023-01-21T04:29:38.980Z,1016.96
2023-01-21T04:34:40.239Z,1016.86
2023-01-21T04:39:41.459Z,1016.88
2023-01-21T04:44:42.706Z,1016.94
2023-01-21T04:49:43.928Z,1016.90
2023-01-21T04:54:45.098Z,1016.88
2023-01-21T04:59:46.292Z,1016.89
2023-01-21T05:04:47.465Z,1016.88
2023-01-21T05:09:48.683Z,1016.89
2023-01-21T05:14:50.886Z,1016.93
2023-01-21T05:19:50.039Z,1017.02
2023-01-21T05:24:51.216Z,1017.01
2023-01-21T05:29:52.445Z,1016.99
2023-01-21T05:34:53.575Z,1016.95
2023-01-21T05:39:54.751Z,1016.92
2023-01-21T05:44:55.904Z,1016.93
2023-01-21T05:49:57.109Z,1016.87
2023-01-21T05:55:02.165Z,1016.87
2023-01-21T05:59:57.895Z,1016.81
2023-01-21T06:04:59.129Z,1016.87
2023-01-21T06:10:00.299Z,1016.88
2023-01-21T06:15:01.548Z,1016.83
2023-01-21T06:20:03.371Z,1016.98
2023-01-21T06:25:06.944Z,1017.04
2023-01-21T06:30:02.171Z,1017.06
2023-01-21T06:35:03.395Z,1017.06
2023-01-21T06:40:04.654Z,1017.09
2023-01-21T06:45:05.851Z,1017.10
2023-01-21T06:50:07.062Z,1017.19
2023-01-21T06:55:08.359Z,1017.17
2023-01-21T07:00:09.577Z,1017.31
2023-01-21T07:05:10.802Z,1017.32
2023-01-21T07:10:12.041Z,1017.40
2023-01-21T07:15:13.286Z,1017.40
2023-01-21T07:20:14.513Z,1017.39
2023-01-21T07:25:17.106Z,1017.39
2023-01-21T07:30:16.769Z,1017.41
2023-01-21T07:35:16.368Z,1017.49
2023-01-21T07:40:15.687Z,1017.57
2023-01-21T07:45:17.172Z,1017.61
2023-01-21T07:50:16.490Z,1017.57
2023-01-21T07:55:18.018Z,1017.61
2023-01-21T08:00:17.435Z,1017.76
2023-01-21T08:05:18.962Z,1017.78
2023-01-21T08:10:17.657Z,1017.76
2023-01-21T08:15:19.261Z,1017.73
2023-01-21T08:20:18.660Z,1017.78
2023-01-21T08:25:19.852Z,1017.83
2023-01-21T08:30:21.152Z,1017.80
2023-01-21T08:35:23.364Z,1017.96
2023-01-21T08:40:22.596Z,1017.89
2023-01-21T08:45:23.931Z,1017.91
2023-01-21T08:50:25.151Z,1017.93
2023-01-21T08:55:26.351Z,1017.97
2023-01-21T09:00:27.657Z,1017.99
2023-01-21T09:05:28.875Z,1017.98
2023-01-21T09:10:30.180Z,1018.04
2023-01-21T09:15:31.440Z,1018.14
2023-01-21T09:20:31.678Z,1018.16
2023-01-21T09:25:32.900Z,1018.20
2023-01-21T09:30:34.125Z,1018.25
2023-01-21T09:35:38.247Z,1018.19
2023-01-21T09:40:36.360Z,1018.30
2023-01-21T09:45:36.535Z,1018.27
2023-01-21T09:50:35.997Z,1018.21
2023-01-21T09:55:36.161Z,1018.17
2023-01-21T10:00:35.313Z,1018.12
2023-01-21T10:05:37.424Z,1018.12
2023-01-21T10:10:36.589Z,1018.16
2023-01-21T10:15:37.691Z,1018.09
2023-01-21T10:20:38.802Z,1018.09
2023-01-21T10:25:39.964Z,1017.99
2023-01-21T10:30:40.257Z,1017.98
2023-01-21T10:35:42.433Z,1018.03
2023-01-21T10:40:41.575Z,1017.98
2023-01-21T10:45:42.873Z,1017.98
2023-01-21T10:50:42.189Z,1017.86
2023-01-21T10:55:43.341Z,1017.83
2023-01-21T11:00:44.441Z,1017.82
2023-01-21T11:05:45.567Z,1017.86
2023-01-21T11:10:46.728Z,1017.80
2023-01-21T11:15:47.923Z,1017.78
2023-01-21T11:20:49.036Z,1017.78
2023-01-21T11:25:50.158Z,1017.77
2023-01-21T11:30:51.882Z,1017.75
2023-01-21T11:35:51.217Z,1017.69
2023-01-21T11:40:54.326Z,1017.63
2023-01-21T11:45:53.460Z,1017.57
2023-01-21T11:50:55.612Z,1017.53
2023-01-21T11:55:55.792Z,1017.60
2023-01-21T12:00:54.952Z,1017.60
2023-01-21T12:05:57.131Z,1017.54
2023-01-21T12:10:56.275Z,1017.55
2023-01-21T12:15:58.416Z,1017.46
2023-01-21T12:20:58.568Z,1017.43
2023-01-21T12:25:57.711Z,1017.45
2023-01-21T12:30:58.995Z,1017.49
2023-01-21T12:36:00.259Z,1017.41
2023-01-21T12:41:01.729Z,1017.42
2023-01-21T12:46:00.876Z,1017.36
2023-01-21T12:51:03.083Z,1017.33
2023-01-21T12:56:02.914Z,1017.44
2023-01-21T13:01:03.159Z,1017.30
2023-01-21T13:06:02.335Z,1017.36
2023-01-21T13:11:04.476Z,1017.46
2023-01-21T13:16:04.659Z,1017.40
2023-01-21T13:21:03.791Z,1017.37
2023-01-21T13:26:05.941Z,1017.34
2023-01-21T13:31:06.229Z,1017.47
2023-01-21T13:36:05.470Z,1017.53
2023-01-21T13:41:06.621Z,1017.54
2023-01-21T13:46:07.823Z,1017.56
2023-01-21T13:51:09.994Z,1017.60
2023-01-21T13:56:10.142Z,1017.61
2023-01-21T14:01:09.319Z,1017.70
2023-01-21T14:06:11.481Z,1017.79
2023-01-21T14:11:10.669Z,1017.75
2023-01-21T14:16:11.880Z,1017.84
2023-01-21T14:21:13.009Z,1017.83
2023-01-21T14:26:14.251Z,1017.83
2023-01-21T14:31:15.514Z,1017.96
2023-01-21T14:36:16.696Z,1017.97
2023-01-21T14:41:18.126Z,1018.05
2023-01-21T14:46:19.420Z,1018.06
2023-01-21T14:51:19.733Z,1018.05
2023-01-21T14:56:21.045Z,1018.08
2023-01-21T15:01:23.008Z,1018.01
2023-01-21T15:06:23.396Z,1018.03
2023-01-21T15:11:22.623Z,1018.05
2023-01-21T15:16:23.869Z,1018.02
2023-01-21T15:21:25.058Z,1018.09
2023-01-21T15:26:27.307Z,1018.19
2023-01-21T15:31:26.744Z,1018.20
2023-01-21T15:36:26.026Z,1018.21
2023-01-21T15:41:27.164Z,1018.26
2023-01-21T15:46:28.551Z,1018.31
2023-01-21T15:51:29.888Z,1018.35
2023-01-21T15:56:31.162Z,1018.38
2023-01-21T16:01:32.650Z,1018.42
2023-01-21T16:06:31.934Z,1018.45
2023-01-21T16:11:34.059Z,1018.43
2023-01-21T16:16:33.528Z,1018.46
2023-01-21T16:21:32.723Z,1018.47
2023-01-21T16:26:34.032Z,1018.52
2023-01-21T16:31:35.332Z,1018.58
2023-01-21T16:36:36.702Z,1018.60
2023-01-21T16:41:38.360Z,1018.65
2023-01-21T16:46:37.895Z,1018.71
2023-01-21T16:51:37.200Z,1018.79
2023-01-21T16:56:37.573Z,1018.86
2023-01-21T17:01:37.921Z,1018.86
2023-01-21T17:06:38.570Z,1018.85
2023-01-21T17:11:38.170Z,1018.90
2023-01-21T17:16:39.318Z,1018.87
2023-01-21T17:21:41.490Z,1018.86
2023-01-21T17:26:45.976Z,1018.94
2023-01-21T17:31:42.789Z,1018.99
2023-01-21T17:36:42.812Z,1019.06
2023-01-21T17:41:46.380Z,1019.10
2023-01-21T17:46:44.476Z,1019.18
2023-01-21T17:51:43.899Z,1019.20
2023-01-21T17:56:45.630Z,1019.26
2023-01-21T18:01:44.846Z,1019.30
2023-01-21T18:06:46.331Z,1019.28
2023-01-21T18:11:45.726Z,1019.35
2023-01-21T18:16:48.154Z,1019.41
2023-01-21T18:21:47.322Z,1019.41
2023-01-21T18:26:48.453Z,1019.43
2023-01-21T18:31:49.727Z,1019.44
2023-01-21T18:36:51.043Z,1019.50
2023-01-21T18:41:53.898Z,1019.49
2023-01-21T18:46:54.225Z,1019.51
2023-01-21T18:51:54.425Z,1019.54
2023-01-21T18:56:53.851Z,1019.58
2023-01-21T19:01:53.154Z,1019.59
2023-01-21T19:06:55.633Z,1019.59
2023-01-21T19:11:54.861Z,1019.58
2023-01-21T19:16:56.080Z,1019.63
2023-01-21T19:21:57.534Z,1019.56
2023-01-21T19:26:56.859Z,1019.59
2023-01-21T19:31:58.999Z,1019.59
2023-01-21T19:36:59.367Z,1019.60
2023-01-21T19:42:07.995Z,1019.59
2023-01-21T19:47:04.792Z,1019.62
2023-01-21T19:52:00.270Z,1019.63
2023-01-21T19:56:59.483Z,1019.66
2023-01-21T20:02:00.971Z,1019.73
2023-01-21T20:07:02.081Z,1019.66
2023-01-21T20:12:03.480Z,1019.67
2023-01-21T20:17:00.973Z,1019.68
2023-01-21T20:22:03.154Z,1019.72
2023-01-21T20:27:02.603Z,1019.81
2023-01-21T20:32:02.880Z,1019.86
2023-01-21T20:37:04.215Z,1019.88
2023-01-21T20:42:05.433Z,1019.87
2023-01-21T20:47:08.839Z,1019.86
2023-01-21T20:52:08.087Z,1019.86
2023-01-21T20:57:08.676Z,1019.88
2023-01-21T21:02:08.021Z,1019.87
2023-01-21T21:07:10.566Z,1019.86
2023-01-21T21:12:09.885Z,1019.82
2023-01-21T21:17:12.143Z,1019.72
2023-01-21T21:22:11.170Z,1019.79
2023-01-21T21:27:12.698Z,1019.81
2023-01-21T21:32:12.473Z,1019.82
2023-01-21T21:37:12.791Z,1019.89
2023-01-21T21:42:12.618Z,1019.86
2023-01-21T21:47:13.134Z,1019.87
2023-01-21T21:52:14.292Z,1019.87
2023-01-21T21:57:15.687Z,1019.83
2023-01-21T22:02:15.068Z,1019.92
2023-01-21T22:07:16.289Z,1019.93
2023-01-21T22:12:21.497Z,1019.91
2023-01-21T22:17:17.752Z,1019.92
2023-01-21T22:22:18.916Z,1019.92
2023-01-21T22:27:20.108Z,1019.97
2023-01-21T22:32:21.286Z,1019.95
2023-01-21T22:37:22.483Z,1019.88
2023-01-21T22:42:23.765Z,1019.86
2023-01-21T22:47:24.905Z,1019.84
2023-01-21T22:52:26.157Z,1019.83
2023-01-21T22:57:27.395Z,1019.77
2023-01-21T23:02:27.628Z,1019.75
2023-01-21T23:07:29.784Z,1019.69
2023-01-21T23:12:27.955Z,1019.67
2023-01-21T23:17:29.149Z,1019.76
2023-01-21T23:22:30.301Z,1019.66
2023-01-21T23:27:31.442Z,1019.67
2023-01-21T23:32:33.690Z,1019.66
2023-01-21T23:37:32.882Z,1019.75
2023-01-21T23:42:33.994Z,1019.69
2023-01-21T23:47:36.148Z,1019.68
2023-01-21T23:52:35.283Z,1019.68
2023-01-21T23:57:37.429Z,1019.66
